Time;durP1;ratioP1;P1;durP2;ratioP2;P2;SDS_P1;SDS_P2;PMS_P1;PMS_P2;Temp;Humidity;BMP_temperature;BMP_pressure;BME280_temperature;BME280_humidity;BME280_pressure;Samples;Min_cycle;Max_cycle;Signal;HPM_P1;HPM_P2
2022/01/23 00:01:48;;;;;;;11.07;7.15;;;2.00;99.90;;;;;;5055885;28;20040;-67
2022/01/23 00:04:14;;;;;;;12.77;7.68;;;2.00;99.90;;;;;;5055984;28;20033;-67
2022/01/23 00:06:40;;;;;;;14.70;7.82;;;2.00;99.90;;;;;;5056023;28;20036;-66
2022/01/23 00:09:05;;;;;;;13.48;8.07;;;2.00;99.90;;;;;;5055785;28;20056;-66
2022/01/23 00:11:35;;;;;;;12.73;7.00;;;2.00;99.90;;;;;;5055950;28;20032;-66
2022/01/23 00:19:14;;;;;;;12.50;6.85;;;2.00;99.90;;;;;;5055392;28;20036;-66
2022/01/23 00:21:41;;;;;;;11.38;6.03;;;2.00;99.90;;;;;;5055680;28;20350;-66
2022/01/23 00:32:04;;;;;;;10.50;5.82;;;2.10;99.90;;;;;;5055530;28;20155;-65
2022/01/23 00:34:29;;;;;;;9.88;5.95;;;2.10;99.90;;;;;;5037390;28;20128;-65
2022/01/23 00:36:55;;;;;;;11.50;5.82;;;2.10;99.90;;;;;;5037409;28;20423;-64
2022/01/23 00:39:20;;;;;;;9.95;5.38;;;2.10;99.90;;;;;;5054035;28;20491;-64
2022/01/23 00:41:46;;;;;;;8.27;4.65;;;2.10;99.90;;;;;;5055452;28;20457;-64
2022/01/23 00:44:12;;;;;;;7.95;5.03;;;2.10;99.90;;;;;;5037276;28;20033;-64
2022/01/23 00:46:40;;;;;;;9.85;5.75;;;2.10;99.90;;;;;;5055051;28;20071;-64
2022/01/23 00:51:34;;;;;;;9.25;5.20;;;2.10;99.90;;;;;;5055064;28;20029;-64
2022/01/23 00:54:01;;;;;;;9.75;4.70;;;2.10;99.90;;;;;;5054878;28;20064;-64
2022/01/23 00:56:27;;;;;;;10.45;4.88;;;2.10;99.90;;;;;;5037067;28;20029;-64
2022/01/23 00:58:53;;;;;;;8.80;5.00;;;2.10;99.90;;;;;;5054843;28;20113;-64
2022/01/23 01:01:19;;;;;;;9.43;5.10;;;2.10;99.90;;;;;;5036900;28;20111;-64
2022/01/23 01:03:45;;;;;;;8.15;4.88;;;2.10;99.90;;;;;;5054710;28;20029;-65
2022/01/23 01:06:11;;;;;;;11.52;5.22;;;2.10;99.90;;;;;;5054709;28;20040;-64
2022/01/23 01:08:37;;;;;;;11.27;5.10;;;2.10;99.90;;;;;;5054198;28;20392;-65
2022/01/23 01:32:56;;;;;;;8.60;5.60;;;2.10;99.90;;;;;;5054254;28;20510;-65
2022/01/23 01:35:32;;;;;;;10.90;6.32;;;2.10;99.90;;;;;;5053751;28;20124;-65
2022/01/23 01:37:58;;;;;;;10.23;5.70;;;2.10;99.90;;;;;;5054353;28;20017;-65
2022/01/23 01:40:25;;;;;;;11.23;6.05;;;2.10;99.90;;;;;;5054277;28;20123;-65
2022/01/23 01:42:51;;;;;;;11.43;6.05;;;2.50;99.90;;;;;;5036251;28;20040;-65
2022/01/23 01:45:26;;;;;;;11.68;6.65;;;2.20;99.90;;;;;;5036123;28;20032;-65
2022/01/23 01:47:54;;;;;;;11.93;6.50;;;2.20;99.90;;;;;;5054342;28;20096;-65
2022/01/23 01:50:20;;;;;;;12.13;6.10;;;2.20;99.90;;;;;;5053711;28;20043;-65
2022/01/23 01:52:47;;;;;;;9.27;6.20;;;2.20;99.90;;;;;;5053922;28;20029;-65
2022/01/23 01:55:18;;;;;;;10.50;6.53;;;2.30;99.90;;;;;;5053834;28;20063;-65
2022/01/23 01:57:52;;;;;;;11.25;6.30;;;2.20;99.90;;;;;;5053906;28;20029;-65
2022/01/23 02:10:49;;;;;;;6.25;3.90;;;2.40;99.90;;;;;;5053302;28;20067;-65
2022/01/23 02:13:18;;;;;;;8.38;4.47;;;2.40;99.90;;;;;;5053748;28;20032;-65
2022/01/23 02:22:31;;;;;;;7.35;4.45;;;2.40;99.90;;;;;;5053694;28;20040;-65
2022/01/23 02:51:49;;;;;;;4.70;3.05;;;2.60;99.90;;;;;;5053367;28;20163;-65
2022/01/23 02:56:46;;;;;;;4.57;2.88;;;2.70;99.90;;;;;;5053258;28;20078;-65
2022/01/23 03:02:02;;;;;;;6.55;2.72;;;2.60;99.90;;;;;;5053322;28;20159;-65
2022/01/23 03:04:29;;;;;;;3.97;2.90;;;2.60;99.90;;;;;;5056669;28;20040;-65
2022/01/23 03:09:55;;;;;;;5.50;3.42;;;2.60;99.90;;;;;;5037522;28;20569;-65
2022/01/23 03:31:25;;;;;;;7.03;2.88;;;2.50;99.90;;;;;;5056766;28;20435;-65
2022/01/23 03:33:52;;;;;;;2.47;2.28;;;2.50;99.90;;;;;;5056601;28;20056;-65
2022/01/23 03:36:17;;;;;;;3.97;2.42;;;2.40;99.90;;;;;;5056512;28;20017;-65
2022/01/23 03:38:43;;;;;;;5.13;2.72;;;2.50;99.90;;;;;;5056645;28;20029;-65
2022/01/23 03:41:10;;;;;;;3.50;2.65;;;2.40;99.90;;;;;;5056360;28;20370;-65
2022/01/23 03:43:38;;;;;;;5.95;3.08;;;2.40;99.90;;;;;;5038092;28;20029;-65
2022/01/23 03:46:33;;;;;;;5.18;2.60;;;2.40;99.90;;;;;;5038382;28;20025;-65
2022/01/23 03:51:43;;;;;;;3.60;2.35;;;2.40;99.90;;;;;;5056377;28;20036;-65
2022/01/23 03:54:09;;;;;;;4.00;2.03;;;2.30;99.90;;;;;;5038237;28;20388;-65
2022/01/23 03:56:35;;;;;;;4.63;2.45;;;2.40;99.90;;;;;;5056113;28;20021;-65
2022/01/23 03:59:00;;;;;;;6.15;2.25;;;2.30;99.90;;;;;;5038145;28;20024;-65
2022/01/23 04:01:26;;;;;;;4.38;2.60;;;2.30;99.90;;;;;;5056339;28;20025;-65
2022/01/23 04:03:55;;;;;;;4.68;2.65;;;2.40;99.90;;;;;;5056174;28;20032;-65
2022/01/23 04:06:20;;;;;;;2.60;1.75;;;2.30;99.90;;;;;;5038005;28;20036;-65
2022/01/23 04:09:05;;;;;;;4.15;2.25;;;2.20;99.90;;;;;;5055620;28;20036;-65
2022/01/23 04:11:31;;;;;;;5.72;2.47;;;2.30;99.90;;;;;;5055835;28;20040;-65
2022/01/23 04:14:07;;;;;;;5.30;2.67;;;2.20;99.90;;;;;;5055388;28;20112;-64
2022/01/23 04:35:03;;;;;;;4.90;2.75;;;1.90;99.90;;;;;;5055326;28;20036;-64
2022/01/23 04:45:48;;;;;;;6.72;3.65;;;1.60;99.90;;;;;;5055086;28;20111;-65
2022/01/23 04:59:35;;;;;;;12.90;4.43;;;1.20;99.90;;;;;;5054662;28;20552;-65
2022/01/23 05:02:32;;;;;;;7.95;3.67;;;1.20;99.90;;;;;;5055384;28;20032;-64
2022/01/23 05:04:52;;;;;;;8.00;3.78;;;1.10;99.90;;;;;;5054351;28;20029;-65
2022/01/23 05:07:18;;;;;;;6.32;3.72;;;1.10;99.90;;;;;;5037434;28;20082;-64
2022/01/23 05:09:44;;;;;;;8.10;3.95;;;1.10;99.90;;;;;;5054481;28;20047;-64
2022/01/23 05:12:12;;;;;;;5.57;3.75;;;1.10;99.90;;;;;;5036754;28;20029;-65
2022/01/23 05:14:45;;;;;;;6.32;2.67;;;1.10;99.90;;;;;;5054536;28;20029;-65
2022/01/23 05:17:13;;;;;;;7.82;4.32;;;1.10;99.90;;;;;;5054565;28;20050;-65
2022/01/23 05:19:40;;;;;;;8.25;3.80;;;1.30;99.90;;;;;;5054515;28;20021;-64
2022/01/23 05:24:37;;;;;;;6.32;3.35;;;1.20;99.90;;;;;;5054411;28;20037;-65
2022/01/23 05:27:06;;;;;;;7.72;3.85;;;1.20;99.90;;;;;;5036635;28;20415;-64
2022/01/23 05:29:33;;;;;;;6.30;3.17;;;1.30;99.90;;;;;;5054328;28;20028;-64
2022/01/23 05:31:59;;;;;;;6.28;3.22;;;1.30;99.90;;;;;;5054288;28;20021;-64
2022/01/23 05:34:25;;;;;;;4.85;2.78;;;1.30;99.90;;;;;;5054165;28;20029;-64
2022/01/23 05:36:52;;;;;;;6.95;3.65;;;1.30;99.90;;;;;;5054176;28;20416;-64
2022/01/23 05:39:21;;;;;;;5.72;3.42;;;1.30;99.90;;;;;;5054191;28;20457;-65
2022/01/23 05:41:47;;;;;;;;;;;1.30;99.90;;;;;;5054282;28;20021;-64
2022/01/23 05:44:13;;;;;;;7.00;2.95;;;1.30;99.90;;;;;;5054054;28;20003;-64
2022/01/23 05:46:38;;;;;;;7.07;3.42;;;1.30;99.90;;;;;;5053853;28;20389;-64
2022/01/23 05:49:05;;;;;;;8.02;4.07;;;1.30;99.90;;;;;;5036333;28;20021;-65
2022/01/23 05:51:31;;;;;;;6.40;3.33;;;1.20;99.90;;;;;;5053976;28;20028;-64
2022/01/23 05:53:57;;;;;;;7.70;3.85;;;1.60;99.90;;;;;;5053547;28;20056;-64
2022/01/23 05:56:22;;;;;;;7.35;3.67;;;1.30;99.90;;;;;;5036067;28;20024;-64
2022/01/23 05:58:48;;;;;;;6.93;3.45;;;1.30;99.90;;;;;;5035985;28;20093;-64
2022/01/23 06:01:14;;;;;;;8.43;4.20;;;1.30;99.90;;;;;;5053950;28;20025;-65
2022/01/23 06:03:39;;;;;;;6.28;3.25;;;1.30;99.90;;;;;;5054067;28;20039;-65
2022/01/23 06:06:05;;;;;;;8.48;4.60;;;1.30;99.90;;;;;;5053817;28;20051;-65
2022/01/23 06:08:31;;;;;;;9.27;3.65;;;1.30;99.90;;;;;;5053756;28;20036;-65
2022/01/23 06:10:57;;;;;;;7.45;4.32;;;1.30;99.90;;;;;;5071313;28;20499;-65
2022/01/23 06:13:25;;;;;;;10.80;5.07;;;1.30;99.90;;;;;;5073801;28;20017;-65
2022/01/23 06:15:52;;;;;;;7.63;4.15;;;1.30;99.90;;;;;;5073698;28;20068;-65
2022/01/23 06:18:18;;;;;;;7.72;4.30;;;1.30;99.90;;;;;;5073732;28;20032;-65
2022/01/23 06:20:44;;;;;;;15.43;5.22;;;1.40;99.90;;;;;;5073395;28;20522;-65
2022/01/23 06:23:10;;;;;;;8.57;4.57;;;1.40;99.90;;;;;;5072100;28;20031;-65
2022/01/23 06:25:37;;;;;;;11.43;4.80;;;2.10;99.90;;;;;;5073794;28;20074;-65
2022/01/23 06:28:28;;;;;;;10.10;4.60;;;1.30;99.90;;;;;;5073636;28;20436;-65
2022/01/23 06:30:54;;;;;;;9.10;4.85;;;1.30;99.90;;;;;;5073654;28;20035;-65
2022/01/23 06:33:19;;;;;;;9.23;4.40;;;1.40;99.90;;;;;;5072271;28;20107;-65
2022/01/23 06:35:45;;;;;;;11.80;5.30;;;1.30;99.90;;;;;;5072194;28;20032;-65
2022/01/23 06:38:11;;;;;;;11.30;5.43;;;1.40;99.90;;;;;;5075351;28;20115;-65
2022/01/23 06:40:36;;;;;;;12.85;5.38;;;1.40;99.90;;;;;;5077529;28;20108;-65
2022/01/23 06:43:02;;;;;;;9.27;5.13;;;1.40;99.90;;;;;;5076150;28;20036;-65
2022/01/23 06:45:28;;;;;;;12.27;4.97;;;1.40;99.90;;;;;;5076340;28;20460;-65
2022/01/23 06:47:53;;;;;;;11.80;5.15;;;1.30;99.90;;;;;;5076997;28;20536;-65
2022/01/23 06:50:19;;;;;;;10.98;5.13;;;1.30;99.90;;;;;;5077268;28;20063;-65
2022/01/23 06:52:45;;;;;;;10.05;5.15;;;1.30;99.90;;;;;;5075688;28;20031;-65
2022/01/23 06:55:10;;;;;;;11.57;5.47;;;1.30;99.90;;;;;;5075595;28;20123;-65
2022/01/23 06:57:36;;;;;;;6.78;3.78;;;1.30;99.90;;;;;;5077147;28;20082;-65
2022/01/23 07:00:04;;;;;;;12.73;4.53;;;1.30;99.90;;;;;;5075805;28;20059;-65
2022/01/23 07:02:29;;;;;;;10.10;5.28;;;1.30;99.90;;;;;;5075817;28;20020;-65
2022/01/23 07:04:56;;;;;;;11.07;5.38;;;1.30;99.90;;;;;;5077016;28;20100;-65
2022/01/23 07:07:22;;;;;;;10.85;5.22;;;1.40;99.90;;;;;;5076967;28;20353;-65
2022/01/23 07:09:48;;;;;;;11.63;3.97;;;1.30;99.90;;;;;;5066311;28;20049;-65
2022/01/23 07:12:13;;;;;;;8.63;4.50;;;1.30;99.90;;;;;;5039057;28;20025;-65
2022/01/23 07:14:39;;;;;;;10.90;5.22;;;1.30;99.90;;;;;;5038862;28;20033;-65
2022/01/23 07:17:05;;;;;;;14.15;5.90;;;1.40;99.90;;;;;;5056812;28;20058;-65
2022/01/23 07:19:30;;;;;;;8.88;3.90;;;1.30;99.90;;;;;;5056757;28;20037;-65
2022/01/23 07:21:56;;;;;;;9.23;4.65;;;1.40;99.90;;;;;;5056441;28;20435;-66
2022/01/23 07:24:23;;;;;;;13.55;4.38;;;1.60;99.90;;;;;;5056608;28;20370;-66
2022/01/23 07:26:48;;;;;;;16.77;5.20;;;1.30;99.90;;;;;;5056867;28;20021;-66
2022/01/23 07:29:16;;;;;;;9.35;4.60;;;1.30;99.90;;;;;;5038682;28;20056;-66
2022/01/23 07:31:57;;;;;;;12.25;5.00;;;1.40;99.90;;;;;;5038620;28;20025;-66
2022/01/23 07:34:23;;;;;;;14.05;4.82;;;1.40;99.90;;;;;;5056514;28;20029;-68
2022/01/23 07:36:49;;;;;;;10.90;5.47;;;1.30;99.90;;;;;;5038579;28;20028;-66
2022/01/23 07:39:15;;;;;;;10.57;5.13;;;1.30;99.90;;;;;;5038275;28;20036;-65
2022/01/23 07:41:40;;;;;;;16.38;5.93;;;1.30;99.90;;;;;;5038462;28;20025;-65
2022/01/23 07:44:06;;;;;;;11.60;5.22;;;1.30;99.90;;;;;;5056096;28;20033;-66
2022/01/23 07:46:32;;;;;;;12.57;5.10;;;1.30;99.90;;;;;;5038349;28;20029;-66
2022/01/23 07:48:58;;;;;;;10.38;4.97;;;1.30;99.90;;;;;;5037679;28;20036;-65
2022/01/23 07:51:24;;;;;;;12.35;5.28;;;1.30;99.90;;;;;;5055916;28;20060;-66
2022/01/23 07:53:49;;;;;;;15.90;5.45;;;1.30;99.90;;;;;;5056067;28;20025;-65
2022/01/23 07:56:15;;;;;;;11.63;5.53;;;1.30;99.90;;;;;;5038268;28;20056;-65
2022/01/23 07:58:41;;;;;;;13.40;5.60;;;1.30;99.90;;;;;;5038096;28;20455;-66
2022/01/23 08:01:07;;;;;;;8.90;4.43;;;1.30;99.90;;;;;;5038033;28;20028;-66
2022/01/23 08:03:32;;;;;;;13.70;5.65;;;1.30;99.90;;;;;;5055955;28;20056;-65
2022/01/23 08:05:58;;;;;;;12.70;5.75;;;1.30;99.90;;;;;;5055630;28;20511;-66
2022/01/23 08:08:24;;;;;;;14.50;6.03;;;1.40;99.90;;;;;;5055560;28;20048;-66
2022/01/23 08:10:49;;;;;;;10.57;4.43;;;1.40;99.90;;;;;;5071818;28;20091;-66
2022/01/23 08:13:15;;;;;;;15.43;5.57;;;1.40;99.90;;;;;;5075590;28;20528;-66
2022/01/23 08:15:41;;;;;;;10.20;5.25;;;1.40;99.90;;;;;;5075418;28;20036;-66
2022/01/23 08:18:08;;;;;;;14.43;5.80;;;1.50;99.90;;;;;;5074407;28;20048;-67
2022/01/23 08:20:34;;;;;;;12.27;6.03;;;1.70;99.90;;;;;;5074560;28;20032;-71
2022/01/23 08:23:02;;;;;;;11.15;5.05;;;1.50;99.90;;;;;;5075658;28;20028;-65
2022/01/23 08:25:29;;;;;;;12.90;5.78;;;1.50;99.90;;;;;;5074758;28;20032;-66
2022/01/23 08:27:55;;;;;;;20.90;8.43;;;1.50;99.90;;;;;;5075730;28;20472;-66
2022/01/23 08:30:21;;;;;;;17.60;6.88;;;1.50;99.90;;;;;;5074214;28;20032;-68
2022/01/23 08:32:47;;;;;;;13.13;5.93;;;1.50;99.90;;;;;;5075163;28;20365;-66
2022/01/23 08:35:13;;;;;;;13.63;6.13;;;2.20;99.90;;;;;;5074237;28;20039;-66
2022/01/23 08:37:39;;;;;;;14.90;6.88;;;1.50;99.90;;;;;;5075271;28;20384;-64
2022/01/23 08:40:16;;;;;;;16.33;5.95;;;1.50;99.90;;;;;;5073987;28;20033;-65
2022/01/23 08:42:41;;;;;;;12.32;5.70;;;1.50;99.90;;;;;;5075488;28;20024;-65
2022/01/23 08:45:07;;;;;;;11.70;5.70;;;1.60;99.90;;;;;;5074907;28;20082;-65
2022/01/23 08:47:33;;;;;;;16.65;6.03;;;1.60;99.90;;;;;;5075169;28;20056;-65
2022/01/23 08:49:59;;;;;;;13.82;6.13;;;1.60;99.90;;;;;;5074999;28;20055;-64
2022/01/23 08:52:24;;;;;;;12.77;5.57;;;1.70;99.90;;;;;;5074957;28;20035;-65
2022/01/23 08:55:09;;;;;;;13.32;5.63;;;1.70;99.90;;;;;;5074948;28;20032;-64
2022/01/23 08:57:34;;;;;;;13.43;5.85;;;1.70;99.90;;;;;;5074833;28;20047;-64
2022/01/23 09:00:00;;;;;;;12.38;5.40;;;1.80;99.90;;;;;;5072982;28;20021;-65
2022/01/23 09:02:27;;;;;;;12.18;5.50;;;1.80;99.90;;;;;;5073074;28;20423;-63
2022/01/23 09:04:53;;;;;;;14.82;6.10;;;1.80;99.90;;;;;;5074936;28;20028;-64
2022/01/23 09:07:19;;;;;;;14.20;6.18;;;1.80;99.90;;;;;;5074678;28;20031;-64
2022/01/23 09:09:44;;;;;;;12.75;6.10;;;1.80;99.90;;;;;;5064635;28;20048;-63
2022/01/23 09:14:46;;;;;;;11.73;5.85;;;1.90;99.90;;;;;;5054596;28;20473;-64
2022/01/23 09:17:12;;;;;;;14.98;6.10;;;2.00;99.90;;;;;;5054560;28;20032;-65
2022/01/23 09:19:39;;;;;;;13.85;7.45;;;2.00;99.90;;;;;;5036590;28;20021;-68
2022/01/23 09:22:05;;;;;;;18.83;7.20;;;2.10;99.90;;;;;;5054447;28;20036;-65
2022/01/23 09:24:30;;;;;;;12.82;6.70;;;2.00;99.90;;;;;;5036534;28;20028;-69
2022/01/23 09:27:03;;;;;;;15.65;6.78;;;2.10;99.90;;;;;;5054372;28;20495;-71
2022/01/23 09:29:33;;;;;;;18.70;7.60;;;2.10;99.90;;;;;;5054474;28;20029;-73
2022/01/23 09:31:59;;;;;;;20.52;7.53;;;2.20;99.90;;;;;;5054439;28;20035;-71
2022/01/23 09:34:28;;;;;;;22.70;8.18;;;2.20;99.90;;;;;;5036396;28;20044;-73
2022/01/23 09:36:56;;;;;;;18.60;8.18;;;2.30;99.90;;;;;;5036543;28;20468;-70
2022/01/23 09:39:22;;;;;;;17.92;7.43;;;2.30;99.90;;;;;;5054121;28;20037;-69
2022/01/23 09:42:10;;;;;;;15.13;7.43;;;2.40;99.90;;;;;;5054171;28;20029;-71
2022/01/23 09:45:04;;;;;;;17.35;8.15;;;2.40;99.90;;;;;;5036303;28;20032;-72
2022/01/23 09:47:30;;;;;;;15.52;7.13;;;2.50;99.90;;;;;;5036310;28;20468;-65
2022/01/23 09:49:57;;;;;;;20.77;8.45;;;2.60;99.90;;;;;;5036084;28;20049;-64
2022/01/23 09:52:23;;;;;;;20.30;7.95;;;2.60;99.90;;;;;;5036040;28;20036;-64
2022/01/23 09:54:57;;;;;;;16.35;7.70;;;2.60;99.90;;;;;;5035594;28;20154;-65
2022/01/23 09:57:30;;;;;;;20.30;8.27;;;2.60;99.90;;;;;;5053893;28;20021;-65
2022/01/23 09:59:57;;;;;;;19.42;8.07;;;2.60;99.90;;;;;;5054169;28;20025;-65
2022/01/23 10:02:24;;;;;;;18.33;7.60;;;2.60;99.90;;;;;;5053988;28;20021;-65
2022/01/23 10:04:54;;;;;;;22.25;8.63;;;2.60;99.90;;;;;;5035876;28;20036;-65
2022/01/23 10:07:21;;;;;;;25.77;8.50;;;2.60;99.90;;;;;;5053599;28;20060;-65
2022/01/23 10:09:53;;;;;;;21.35;8.63;;;2.60;99.90;;;;;;5051912;28;20561;-65
2022/01/23 10:12:20;;;;;;;23.08;9.82;;;2.60;99.90;;;;;;5072220;28;20024;-65
2022/01/23 10:14:46;;;;;;;23.98;8.70;;;2.60;99.90;;;;;;5073649;28;20033;-65
2022/01/23 10:17:12;;;;;;;23.45;9.30;;;2.60;99.90;;;;;;5072461;28;20111;-65
2022/01/23 10:19:39;;;;;;;19.52;8.57;;;2.60;99.90;;;;;;5073686;28;20020;-65
2022/01/23 10:22:06;;;;;;;23.00;10.05;;;2.60;99.90;;;;;;5073675;28;20028;-66
2022/01/23 10:24:32;;;;;;;22.20;9.75;;;2.60;99.90;;;;;;5073870;28;20488;-65
2022/01/23 10:26:59;;;;;;;30.02;10.15;;;2.60;99.90;;;;;;5072535;28;20459;-65
2022/01/23 10:29:33;;;;;;;27.55;10.48;;;2.60;99.90;;;;;;5073558;28;20043;-65
2022/01/23 10:32:07;;;;;;;25.35;9.73;;;2.70;99.90;;;;;;5073651;28;20309;-65
2022/01/23 10:34:51;;;;;;;25.65;9.90;;;2.80;99.90;;;;;;5072191;28;20036;-66
2022/01/23 10:37:35;;;;;;;24.42;9.90;;;2.70;99.90;;;;;;5073695;28;20411;-65
2022/01/23 10:40:07;;;;;;;17.63;8.55;;;2.70;99.90;;;;;;5073706;28;20032;-65
2022/01/23 10:48:11;;;;;;;25.30;8.93;;;2.90;99.90;;;;;;5073327;28;20495;-65
2022/01/23 10:50:37;;;;;;;21.85;9.25;;;2.90;99.90;;;;;;5073542;28;20024;-65
2022/01/23 10:53:03;;;;;;;20.63;8.57;;;2.80;99.90;;;;;;5073303;28;20159;-65
2022/01/23 10:55:33;;;;;;;23.73;8.75;;;2.90;99.90;;;;;;5073550;28;20039;-66
2022/01/23 10:58:01;;;;;;;22.40;8.43;;;2.90;99.90;;;;;;5071958;28;20025;-65
2022/01/23 11:00:35;;;;;;;14.53;6.27;;;2.90;99.90;;;;;;5072143;28;20166;-65
2022/01/23 11:03:17;;;;;;;20.95;8.25;;;2.90;99.90;;;;;;5073251;28;20251;-65
2022/01/23 11:05:44;;;;;;;22.95;9.35;;;3.10;99.90;;;;;;5072087;28;20028;-65
2022/01/23 11:08:26;;;;;;;21.08;8.27;;;2.90;99.90;;;;;;5071649;28;20031;-65
2022/01/23 11:11:07;;;;;;;24.60;9.20;;;2.90;99.90;;;;;;5053891;28;20056;-65
2022/01/23 11:19:18;;;;;;;25.40;8.35;;;2.90;99.90;;;;;;5053130;28;20032;-65
2022/01/23 11:21:45;;;;;;;20.15;8.35;;;2.90;99.90;;;;;;5053006;28;20025;-65
2022/01/23 11:24:12;;;;;;;22.95;9.38;;;3.00;99.90;;;;;;5036418;28;20029;-65
2022/01/23 11:26:38;;;;;;;20.20;8.82;;;2.90;99.90;;;;;;5039229;28;20028;-65
2022/01/23 11:29:15;;;;;;;20.50;7.95;;;2.90;99.90;;;;;;5056891;28;20108;-66
2022/01/23 11:31:43;;;;;;;17.85;8.32;;;3.00;99.90;;;;;;5056657;28;20111;-66
2022/01/23 11:34:13;;;;;;;18.77;8.43;;;3.00;99.90;;;;;;5056742;28;20037;-66
2022/01/23 11:36:40;;;;;;;20.90;9.38;;;3.00;99.90;;;;;;5039022;28;20115;-66
2022/01/23 11:39:20;;;;;;;20.08;9.23;;;2.90;99.90;;;;;;5056296;28;20494;-66
2022/01/23 11:56:25;;;;;;;27.00;9.38;;;3.00;99.90;;;;;;5055935;28;20128;-66
2022/01/23 11:58:53;;;;;;;22.15;8.25;;;3.10;99.90;;;;;;5037856;28;20029;-66
2022/01/23 12:01:23;;;;;;;18.67;9.00;;;3.00;99.90;;;;;;5038364;28;20385;-66
2022/01/23 12:04:07;;;;;;;26.30;9.60;;;3.00;99.90;;;;;;5056143;28;20045;-66
2022/01/23 12:06:38;;;;;;;20.98;8.18;;;3.00;99.90;;;;;;5055937;28;20024;-66
2022/01/23 12:09:10;;;;;;;18.45;9.18;;;3.10;99.90;;;;;;5056302;28;20048;-65
2022/01/23 12:11:48;;;;;;;24.30;9.18;;;3.10;99.90;;;;;;5055892;28;20392;-65
2022/01/23 12:16:55;;;;;;;23.42;10.13;;;3.10;99.90;;;;;;5055484;28;20493;-65
2022/01/23 12:19:32;;;;;;;20.70;9.23;;;3.10;99.90;;;;;;5055755;28;20017;-66
2022/01/23 12:22:18;;;;;;;20.73;9.25;;;3.10;99.90;;;;;;5055654;28;20155;-66
2022/01/23 12:24:49;;;;;;;22.83;9.15;;;3.10;99.90;;;;;;5037592;28;20025;-65
2022/01/23 12:27:27;;;;;;;21.80;9.15;;;3.10;99.90;;;;;;5055599;28;20025;-65
2022/01/23 12:30:11;;;;;;;21.30;9.90;;;3.10;99.90;;;;;;5055495;28;20021;-64
2022/01/23 12:32:37;;;;;;;23.27;9.02;;;3.10;99.90;;;;;;5055221;28;20025;-65
2022/01/23 12:35:07;;;;;;;21.00;8.13;;;3.10;99.90;;;;;;5055420;28;20160;-64
2022/01/23 12:37:55;;;;;;;21.95;8.32;;;3.10;99.90;;;;;;5037442;28;20067;-65
2022/01/23 12:40:29;;;;;;;;;;;3.00;99.90;;;;;;5042364;28;20048;-65
2022/01/23 12:43:15;;;;;;;21.05;8.77;;;3.10;99.90;;;;;;5054941;28;20003;-65
2022/01/23 12:45:55;;;;;;;24.42;8.52;;;3.10;99.90;;;;;;5037278;28;20029;-65
2022/01/23 12:48:29;;;;;;;24.67;8.55;;;3.10;99.90;;;;;;5037591;28;20427;-65
2022/01/23 12:51:05;;;;;;;21.85;8.40;;;3.10;99.90;;;;;;5055089;28;20021;-69
2022/01/23 12:53:43;;;;;;;21.23;8.60;;;3.10;99.90;;;;;;5054797;28;20025;-68
2022/01/23 12:56:12;;;;;;;20.67;8.65;;;3.10;99.90;;;;;;5036951;28;20033;-66
2022/01/23 12:58:38;;;;;;;;;;;3.10;99.90;;;;;;5055464;28;20041;-65
2022/01/23 13:01:07;;;;;;;18.00;8.80;;;3.00;99.90;;;;;;5054756;28;19904;-65
2022/01/23 13:03:34;;;;;;;21.63;8.65;;;3.10;99.90;;;;;;5055953;28;20025;-66
2022/01/23 13:06:00;;;;;;;21.23;8.82;;;3.10;99.90;;;;;;5039405;28;20082;-65
2022/01/23 13:08:31;;;;;;;19.08;8.55;;;3.10;99.90;;;;;;5036946;28;20029;-68
2022/01/23 13:16:14;;;;;;;20.08;8.35;;;3.20;99.90;;;;;;5054674;28;20033;-69
2022/01/23 13:29:58;;;;;;;19.85;9.32;;;3.20;99.90;;;;;;5054773;28;20039;-66
2022/01/23 13:34:56;;;;;;;18.23;8.75;;;3.20;99.90;;;;;;5054283;28;20457;-68
2022/01/23 13:37:25;;;;;;;23.98;9.32;;;3.20;99.90;;;;;;5036762;28;20047;-70
2022/01/23 13:39:54;;;;;;;;;;;3.20;99.90;;;;;;5054224;28;20464;-70
2022/01/23 14:04:28;;;;;;;21.00;8.73;;;3.20;99.90;;;;;;5053815;28;20039;-74
2022/01/23 14:06:54;;;;;;;20.50;8.43;;;3.30;99.90;;;;;;5053544;28;20029;-68
2022/01/23 14:09:21;;;;;;;17.95;8.68;;;3.30;99.90;;;;;;5053721;28;20473;-68
2022/01/23 14:11:47;;;;;;;23.98;8.88;;;3.20;99.90;;;;;;5053787;28;20036;-67
2022/01/23 14:14:15;;;;;;;18.23;9.25;;;3.20;99.90;;;;;;5053788;28;20456;-66
2022/01/23 14:16:42;;;;;;;19.65;8.80;;;3.20;99.90;;;;;;5035803;28;20036;-72
2022/01/23 14:19:26;;;;;;;21.13;8.93;;;3.30;99.90;;;;;;5053557;28;20431;-72
2022/01/23 14:21:59;;;;;;;20.50;9.45;;;3.20;99.90;;;;;;5054016;28;20032;-73
2022/01/23 14:24:36;;;;;;;21.60;8.77;;;3.20;99.90;;;;;;5053627;28;20025;-73
2022/01/23 14:27:11;;;;;;;19.65;9.15;;;3.20;99.90;;;;;;5053590;28;20033;-70
2022/01/23 14:29:54;;;;;;;23.38;10.55;;;3.20;99.90;;;;;;5053863;28;20040;-69
2022/01/23 14:32:28;;;;;;;19.00;9.27;;;3.20;99.90;;;;;;5035633;28;20025;-71
2022/01/23 14:35:25;;;;;;;21.27;8.75;;;3.20;99.90;;;;;;5035744;28;20033;-72
2022/01/23 14:37:52;;;;;;;19.20;8.77;;;3.20;99.90;;;;;;5035957;28;20029;-72
2022/01/23 14:40:21;;;;;;;18.05;8.88;;;3.20;99.90;;;;;;5035537;28;20163;-67
2022/01/23 14:43:10;;;;;;;23.42;10.25;;;3.20;99.90;;;;;;5053437;28;20028;-65
2022/01/23 14:45:42;;;;;;;22.50;9.90;;;3.20;99.90;;;;;;5035700;28;20044;-72
2022/01/23 14:48:10;;;;;;;23.45;9.98;;;3.20;99.90;;;;;;5035534;28;20025;-69
2022/01/23 14:50:39;;;;;;;20.25;9.77;;;3.20;99.90;;;;;;5035504;28;20029;-70
2022/01/23 14:53:17;;;;;;;18.10;9.05;;;3.20;99.90;;;;;;5035901;28;20362;-71
2022/01/23 14:55:46;;;;;;;18.65;8.45;;;3.20;99.90;;;;;;5053270;28;20377;-70
2022/01/23 14:58:13;;;;;;;21.48;8.63;;;3.20;99.90;;;;;;5053267;28;20037;-69
2022/01/23 15:00:40;;;;;;;22.63;9.52;;;3.20;99.90;;;;;;5057236;28;20469;-69
2022/01/23 15:03:07;;;;;;;20.20;9.43;;;3.20;99.90;;;;;;5057046;28;20074;-69
2022/01/23 15:05:38;;;;;;;19.35;10.13;;;3.10;99.90;;;;;;5057324;28;20349;-69
2022/01/23 15:08:07;;;;;;;23.00;10.02;;;3.10;99.90;;;;;;5057131;28;20044;-68
2022/01/23 15:10:34;;;;;;;23.35;10.27;;;3.10;99.90;;;;;;5056606;28;20084;-68
2022/01/23 15:13:00;;;;;;;21.80;10.35;;;3.10;99.90;;;;;;5039287;28;20036;-69
2022/01/23 15:15:27;;;;;;;20.08;9.23;;;3.10;99.90;;;;;;5038924;28;20029;-68
2022/01/23 15:17:53;;;;;;;22.65;10.27;;;3.10;99.90;;;;;;5056851;28;20024;-68
2022/01/23 15:20:18;;;;;;;25.23;10.75;;;3.10;99.90;;;;;;5057047;28;20354;-68
2022/01/23 15:22:45;;;;;;;23.52;9.75;;;3.00;99.90;;;;;;5038880;28;20032;-68
2022/01/23 15:25:12;;;;;;;21.52;9.60;;;3.10;99.90;;;;;;5056936;28;20029;-68
2022/01/23 15:27:38;;;;;;;21.70;9.48;;;3.10;99.90;;;;;;5038737;28;20025;-68
2022/01/23 15:30:06;;;;;;;25.10;10.88;;;3.10;99.90;;;;;;5038731;28;20070;-68
2022/01/23 15:32:32;;;;;;;25.60;10.68;;;3.10;99.90;;;;;;5038656;28;20063;-68
2022/01/23 15:34:57;;;;;;;25.27;9.75;;;3.10;99.90;;;;;;5056446;28;20504;-68
2022/01/23 15:37:23;;;;;;;19.13;9.00;;;3.10;99.90;;;;;;5056180;28;20071;-68
2022/01/23 15:39:50;;;;;;;24.42;10.40;;;3.10;99.90;;;;;;5056439;28;20028;-68
2022/01/23 15:42:16;;;;;;;25.65;10.63;;;3.10;99.90;;;;;;5056629;28;20032;-68
2022/01/23 15:44:42;;;;;;;21.73;10.02;;;3.10;99.90;;;;;;5038816;28;20037;-68
2022/01/23 15:47:08;;;;;;;22.20;10.30;;;3.30;99.90;;;;;;5038425;28;20358;-68
2022/01/23 15:49:34;;;;;;;19.75;9.90;;;3.20;99.90;;;;;;5056272;28;20028;-68
2022/01/23 15:52:00;;;;;;;21.33;9.95;;;3.20;99.90;;;;;;5038275;28;20396;-68
2022/01/23 15:54:26;;;;;;;23.23;10.63;;;3.10;99.90;;;;;;5056391;28;20039;-68
2022/01/23 15:56:54;;;;;;;22.38;9.95;;;3.10;99.90;;;;;;5038398;28;20488;-68
2022/01/23 15:59:38;;;;;;;23.55;10.23;;;3.20;99.90;;;;;;5038130;28;20074;-68
2022/01/23 16:02:07;;;;;;;26.40;10.05;;;3.20;99.90;;;;;;5055948;28;20020;-68
2022/01/23 16:04:37;;;;;;;23.42;9.90;;;3.20;99.90;;;;;;5056111;28;20025;-68
2022/01/23 16:07:09;;;;;;;21.00;9.18;;;3.30;99.90;;;;;;5038027;28;20033;-67
2022/01/23 16:09:35;;;;;;;24.77;9.70;;;3.20;99.90;;;;;;5050618;28;20435;-68
2022/01/23 16:12:01;;;;;;;20.90;9.63;;;3.20;99.90;;;;;;5075946;28;20029;-70
2022/01/23 16:14:27;;;;;;;20.52;9.30;;;3.20;99.90;;;;;;5074502;28;20029;-67
2022/01/23 16:16:53;;;;;;;24.83;10.05;;;3.20;99.90;;;;;;5075863;28;20025;-67
2022/01/23 16:19:20;;;;;;;21.50;9.43;;;3.20;99.90;;;;;;5074465;28;20024;-68
2022/01/23 16:21:46;;;;;;;21.58;10.35;;;3.20;99.90;;;;;;5075800;28;20052;-68
2022/01/23 16:24:12;;;;;;;21.02;9.35;;;3.20;99.90;;;;;;5075632;28;20028;-68
2022/01/23 16:26:37;;;;;;;23.23;10.25;;;3.20;99.90;;;;;;5074254;28;20021;-68
2022/01/23 16:29:04;;;;;;;22.48;10.43;;;3.20;99.90;;;;;;5074237;28;20058;-67
2022/01/23 16:31:30;;;;;;;20.65;10.20;;;3.20;99.90;;;;;;5075525;28;20077;-68
2022/01/23 16:33:56;;;;;;;21.63;9.90;;;3.20;99.90;;;;;;5074138;28;20124;-68
2022/01/23 16:36:24;;;;;;;25.63;10.13;;;3.20;99.90;;;;;;5075373;28;20119;-68
2022/01/23 16:38:50;;;;;;;23.67;10.80;;;3.20;99.90;;;;;;5074810;28;20025;-69
2022/01/23 16:41:15;;;;;;;24.13;10.45;;;3.10;99.90;;;;;;5075085;28;20085;-68
2022/01/23 16:43:43;;;;;;;27.35;11.88;;;3.10;99.90;;;;;;5075337;28;20468;-68